Aeroporto :
LOGIN :

Iscrizione | Disclaimer

   EN    FR    IT 

 










Sommario :    VFR   VFR Marginale   IFR   IFR Intensivo   IFR Molto Intensivo
Visibilità : 
Base nubi : 
>= 8 km
>= 3000ft
5 / 8 km
1000 / 3000 ft
1500m / 5 km
500 / 1000 ft
800 / 1500m
200 / 500 ft
< 800m
< 200 ft
Simboli :   Temporali  Nebbia  Neve Forte  Precipitazioni Forti  Vento > 20 kt
SIGMETs :   Varie  Temporali  Ghiacco  Turbolenza  Onda orograficha  Ceneri Vulcaniche






- Altitudine del aeroporto : 15 ft
- Codice IATA : BHD


EGAC - George Best Belfast City

ULTIMO METAR :
  • 171220Z AUTO VRB03KT 9999 BKN025/// 07/04 Q1016

METARs OBSOLETI :
  • 171150Z AUTO 01004KT 320V100 9999 SCT033/// BKN040/// 07/04 Q1016
  • 171120Z AUTO VRB02KT 9999 SCT034/// OVC040/// 07/04 Q1016
  • 171050Z AUTO VRB03KT 9999 BKN032/// 06/04 Q1016
  • 171020Z AUTO VRB02KT 9999 FEW037/// 05/03 Q1015
  • 170950Z AUTO 16003KT 9999 NCD 03/03 Q1015

TAF TAF EGAC
Valido dal 17 a 12 ore il 17 a 21 ore UTC


171101Z 1712/1721 VRB04KT 9999 SCT035
PROB30
TEMPO 1712/1715 7000 SHRA
ATIS : +44 02890 935 124



MetMap, La meteo Aeronautica in un colpo d'occhio ! - Copyright ORBIFLY Dicembre 2007 - Disclaimer

ORBIFLY MET'MAP TEAM :

Programmazione e sviluppo : Alexandra Zaïnal
Concezione e sviluppo : Baudouin d'Aumeries
Co-Programmazione e sviluppo : Marc-Olivier Méhu
Supporto tecnico e logistico : Manuel Goepfert
Aiuto per la traduzione : Arnaldo La Scala

Contatto : metmap@orbifly.com




FONTI E CREDITI :

   NOAA